createdAt,value
2018-11-10T00:00:47.174Z,49.20
2018-11-10T00:03:15.692Z,49.20
2018-11-10T00:05:44.026Z,49.20
2018-11-10T00:08:12.382Z,49.20
2018-11-10T00:10:41.456Z,49.20
2018-11-10T00:13:09.811Z,49.20
2018-11-10T00:15:38.531Z,49.20
2018-11-10T00:18:07.693Z,49.20
2018-11-10T00:20:36.193Z,49.20
2018-11-10T00:23:05.183Z,49.20
2018-11-10T00:25:33.553Z,49.20
2018-11-10T00:28:01.907Z,49.20
2018-11-10T00:30:30.260Z,49.20
2018-11-10T00:32:58.671Z,49.20
2018-11-10T00:35:27.011Z,49.10
2018-11-10T00:37:55.374Z,49.10
2018-11-10T00:40:23.701Z,49.10
2018-11-10T00:42:52.189Z,49.10
2018-11-10T00:45:20.653Z,49.10
2018-11-10T00:47:49.006Z,49.10
2018-11-10T00:50:17.403Z,49.20
2018-11-10T00:52:45.843Z,49.10
2018-11-10T00:55:14.281Z,49.10
2018-11-10T00:57:43.387Z,49.10
2018-11-10T01:00:12.898Z,49.10
2018-11-10T01:02:42.120Z,49.10
2018-11-10T01:05:10.473Z,49.10
2018-11-10T01:07:39.302Z,49.10
2018-11-10T01:10:09.480Z,49.10
2018-11-10T01:12:37.837Z,49.10
2018-11-10T01:15:08.706Z,49.10
2018-11-10T01:17:37.764Z,49.10
2018-11-10T01:20:07.635Z,49.10
2018-11-10T01:22:36.010Z,49.10
2018-11-10T01:25:04.907Z,49.10
2018-11-10T01:27:33.354Z,49.10
2018-11-10T01:30:01.732Z,49.10
2018-11-10T01:32:30.105Z,49.10
2018-11-10T01:34:58.439Z,49.00
2018-11-10T01:37:26.838Z,49.10
2018-11-10T01:39:55.227Z,49.10
2018-11-10T01:42:23.656Z,49.00
2018-11-10T01:44:51.975Z,49.00
2018-11-10T01:47:20.363Z,49.10
2018-11-10T01:49:48.752Z,49.10
2018-11-10T01:52:17.152Z,49.10
2018-11-10T01:54:46.012Z,49.10
2018-11-10T01:57:15.030Z,49.00
2018-11-10T01:59:43.670Z,49.00
2018-11-10T02:02:12.679Z,49.00
2018-11-10T02:04:41.082Z,49.00
2018-11-10T02:07:09.470Z,49.00
2018-11-10T02:09:37.818Z,49.00
2018-11-10T02:12:06.203Z,49.00
2018-11-10T02:14:34.667Z,49.00
2018-11-10T02:17:02.969Z,49.00
2018-11-10T02:19:31.578Z,49.00
2018-11-10T02:21:59.918Z,49.10
2018-11-10T02:24:28.366Z,49.10
2018-11-10T02:26:58.208Z,49.10
2018-11-10T02:29:26.616Z,49.10
2018-11-10T02:31:54.930Z,49.10
2018-11-10T02:34:24.555Z,49.10
2018-11-10T02:36:52.876Z,49.10
2018-11-10T02:39:21.234Z,49.10
2018-11-10T02:41:49.595Z,49.10
2018-11-10T02:44:17.999Z,49.10
2018-11-10T02:46:46.584Z,49.10
2018-11-10T02:49:14.909Z,49.10
2018-11-10T02:51:43.259Z,49.10
2018-11-10T02:54:11.603Z,49.10
2018-11-10T02:56:39.977Z,49.00
2018-11-10T02:59:08.978Z,49.00
2018-11-10T03:01:37.421Z,49.10
2018-11-10T03:04:06.387Z,49.10
2018-11-10T03:06:34.845Z,49.10
2018-11-10T03:09:04.219Z,49.20
2018-11-10T03:11:33.225Z,49.20
2018-11-10T03:14:01.618Z,49.20
2018-11-10T03:16:30.043Z,49.20
2018-11-10T03:18:58.313Z,49.30
2018-11-10T03:21:26.635Z,49.30
2018-11-10T03:23:55.010Z,49.30
2018-11-10T03:26:23.293Z,49.40
2018-11-10T03:28:51.747Z,49.40
2018-11-10T03:31:20.082Z,49.40
2018-11-10T03:33:48.462Z,49.40
2018-11-10T03:36:16.774Z,49.40
2018-11-10T03:38:45.155Z,49.70
2018-11-10T03:41:14.181Z,49.40
2018-11-10T03:43:42.533Z,49.50
2018-11-10T03:46:10.818Z,49.50
2018-11-10T03:48:39.246Z,49.50
2018-11-10T03:51:08.136Z,49.50
2018-11-10T03:53:36.476Z,49.50
2018-11-10T03:56:05.454Z,49.50
2018-11-10T03:58:33.858Z,49.50
2018-11-10T04:01:02.289Z,49.50
2018-11-10T04:03:31.306Z,49.60
2018-11-10T04:05:59.763Z,49.60
2018-11-10T04:08:28.091Z,49.60
2018-11-10T04:10:56.534Z,49.60
2018-11-10T04:13:25.496Z,49.60
2018-11-10T04:15:53.939Z,49.60
2018-11-10T04:18:22.390Z,49.60
2018-11-10T04:20:50.885Z,49.60
2018-11-10T04:23:19.229Z,49.60
2018-11-10T04:25:47.594Z,49.60
2018-11-10T04:28:15.952Z,49.60
2018-11-10T04:30:44.317Z,49.80
2018-11-10T04:33:12.667Z,49.80
2018-11-10T04:35:41.126Z,49.80
2018-11-10T04:38:09.462Z,49.80
2018-11-10T04:40:37.798Z,49.80
2018-11-10T04:43:06.112Z,49.80
2018-11-10T04:45:34.447Z,49.80
2018-11-10T04:48:02.758Z,49.80
2018-11-10T04:50:31.231Z,49.80
2018-11-10T04:52:59.594Z,49.90
2018-11-10T04:55:27.935Z,49.80
2018-11-10T04:57:56.256Z,49.80
2018-11-10T05:00:24.654Z,49.80
2018-11-10T05:02:53.018Z,49.80
2018-11-10T05:05:21.488Z,49.80
2018-11-10T05:07:49.814Z,49.80
2018-11-10T05:10:18.987Z,49.80
2018-11-10T05:12:47.319Z,49.80
2018-11-10T05:15:15.678Z,50.50
2018-11-10T05:17:44.135Z,49.80
2018-11-10T05:20:13.420Z,49.80
2018-11-10T05:22:41.747Z,49.90
2018-11-10T05:25:10.873Z,49.90
2018-11-10T05:27:39.289Z,49.80
2018-11-10T05:30:08.541Z,49.80
2018-11-10T05:32:36.880Z,49.80
2018-11-10T05:35:06.425Z,49.80
2018-11-10T05:37:34.795Z,49.70
2018-11-10T05:40:03.216Z,49.80
2018-11-10T05:42:31.645Z,49.80
2018-11-10T05:45:00.047Z,49.80
2018-11-10T05:47:28.476Z,49.80
2018-11-10T05:49:57.296Z,49.70
2018-11-10T05:52:25.651Z,49.70
2018-11-10T05:54:54.014Z,49.80
2018-11-10T05:57:23.427Z,49.70
2018-11-10T05:59:52.087Z,49.80
2018-11-10T06:02:20.497Z,50.40
2018-11-10T06:04:49.025Z,49.80
2018-11-10T06:07:17.869Z,49.80
2018-11-10T06:09:46.394Z,49.80
2018-11-10T06:12:14.799Z,49.90
2018-11-10T06:14:43.207Z,49.90
2018-11-10T06:17:11.615Z,50.00
2018-11-10T06:19:39.966Z,50.10
2018-11-10T06:22:08.928Z,50.20
2018-11-10T06:24:37.477Z,50.30
2018-11-10T06:27:06.849Z,50.20
2018-11-10T06:29:35.314Z,50.10
2018-11-10T06:32:03.678Z,50.00
2018-11-10T06:34:32.069Z,49.90
2018-11-10T06:37:01.166Z,49.90
2018-11-10T06:39:30.011Z,49.80
2018-11-10T06:41:58.562Z,49.80
2018-11-10T06:44:26.942Z,49.70
2018-11-10T06:46:58.579Z,49.70
2018-11-10T06:49:27.006Z,49.80
2018-11-10T06:51:55.380Z,49.90
2018-11-10T06:54:23.979Z,50.00
2018-11-10T06:56:53.060Z,50.00
2018-11-10T06:59:21.393Z,50.10
2018-11-10T07:01:49.740Z,50.10
2018-11-10T07:04:18.166Z,50.10
2018-11-10T07:06:46.534Z,50.00
2018-11-10T07:09:14.896Z,50.00
2018-11-10T07:11:43.322Z,49.90
2018-11-10T07:14:11.661Z,49.80
2018-11-10T07:16:40.485Z,49.70
2018-11-10T07:19:08.840Z,49.70
2018-11-10T07:21:37.780Z,49.70
2018-11-10T07:24:06.596Z,49.70
2018-11-10T07:26:35.202Z,49.80
2018-11-10T07:29:03.703Z,49.90
2018-11-10T07:31:32.065Z,49.90
2018-11-10T07:34:00.587Z,49.90
2018-11-10T07:36:29.179Z,50.00
2018-11-10T07:38:57.577Z,50.00
2018-11-10T07:41:26.046Z,50.00
2018-11-10T07:43:54.540Z,50.10
2018-11-10T07:46:23.003Z,50.10
2018-11-10T07:48:51.919Z,50.10
2018-11-10T07:51:20.287Z,50.10
2018-11-10T07:53:48.771Z,50.20
2018-11-10T07:56:17.565Z,50.20
2018-11-10T07:58:45.929Z,50.20
2018-11-10T08:01:14.268Z,50.30
2018-11-10T08:03:42.645Z,50.20
2018-11-10T08:06:11.099Z,50.10
2018-11-10T08:08:39.579Z,49.70
2018-11-10T08:11:07.941Z,50.10
2018-11-10T08:13:36.301Z,50.20
2018-11-10T08:16:04.931Z,50.20
2018-11-10T08:18:33.956Z,50.20
2018-11-10T08:21:02.312Z,50.20
2018-11-10T08:23:30.711Z,50.20
2018-11-10T08:25:59.773Z,50.20
2018-11-10T08:28:28.159Z,50.20
2018-11-10T08:30:56.958Z,50.10
2018-11-10T08:33:25.694Z,50.20
2018-11-10T08:35:54.078Z,50.20
2018-11-10T08:38:23.455Z,50.20
2018-11-10T08:40:51.843Z,50.20
2018-11-10T08:43:21.385Z,50.20
2018-11-10T08:45:53.644Z,50.20
2018-11-10T08:48:24.068Z,50.10
2018-11-10T08:50:52.569Z,50.10
2018-11-10T08:53:21.811Z,50.10
2018-11-10T08:55:50.312Z,50.10
2018-11-10T08:58:19.407Z,50.70
2018-11-10T09:00:47.946Z,50.00
2018-11-10T09:03:16.538Z,50.00
2018-11-10T09:05:45.093Z,50.00
2018-11-10T09:08:13.434Z,50.00
2018-11-10T09:10:42.363Z,50.00
2018-11-10T09:13:10.925Z,50.00
2018-11-10T09:15:39.250Z,50.10
2018-11-10T09:18:07.654Z,50.10
2018-11-10T09:20:35.990Z,50.10
2018-11-10T09:23:05.546Z,50.10
2018-11-10T09:25:33.993Z,50.10
2018-11-10T09:28:03.955Z,50.10
2018-11-10T09:30:32.438Z,50.10
2018-11-10T09:33:00.919Z,50.20
2018-11-10T09:35:29.359Z,50.20
2018-11-10T09:37:57.712Z,50.30
2018-11-10T09:40:26.091Z,50.40
2018-11-10T09:42:54.522Z,50.50
2018-11-10T09:45:23.414Z,50.50
2018-11-10T09:47:51.770Z,50.40
2018-11-10T09:50:22.151Z,50.40
2018-11-10T09:52:50.876Z,50.40
2018-11-10T09:55:19.505Z,50.30
2018-11-10T09:57:47.886Z,50.40
2018-11-10T10:00:20.644Z,50.40
2018-11-10T10:02:49.464Z,50.40
2018-11-10T10:05:17.541Z,50.50
2018-11-10T10:07:46.981Z,50.40
2018-11-10T10:10:16.566Z,50.40
2018-11-10T10:12:48.014Z,50.40
2018-11-10T10:15:19.319Z,50.40
2018-11-10T10:17:47.997Z,50.40
2018-11-10T10:20:18.699Z,50.40
2018-11-10T10:22:48.234Z,50.40
2018-11-10T10:25:19.301Z,50.40
2018-11-10T10:27:48.908Z,50.40
2018-11-10T10:30:24.937Z,50.40
2018-11-10T10:32:54.399Z,50.50
2018-11-10T10:35:23.096Z,50.50
2018-11-10T10:37:51.933Z,50.50
2018-11-10T10:40:20.866Z,50.50
2018-11-10T10:42:50.148Z,50.50
2018-11-10T10:45:21.084Z,50.50
2018-11-10T10:47:49.554Z,50.60
2018-11-10T10:50:19.163Z,50.60
2018-11-10T10:52:47.535Z,50.70
2018-11-10T10:55:16.873Z,50.80
2018-11-10T10:57:46.385Z,50.70
2018-11-10T11:00:20.242Z,50.70
2018-11-10T11:02:54.159Z,50.70
2018-11-10T11:05:28.005Z,50.80
2018-11-10T11:07:56.437Z,51.60
2018-11-10T11:10:25.213Z,50.90
2018-11-10T11:12:53.644Z,51.00
2018-11-10T11:15:22.502Z,51.00
2018-11-10T11:17:51.022Z,51.00
2018-11-10T11:20:19.834Z,51.00
2018-11-10T11:22:48.414Z,51.00
2018-11-10T11:25:16.831Z,51.10
2018-11-10T11:27:45.300Z,51.00
2018-11-10T11:30:13.674Z,51.20
2018-11-10T11:32:42.046Z,51.00
2018-11-10T11:35:12.732Z,51.00
2018-11-10T11:37:41.645Z,51.10
2018-11-10T11:40:11.996Z,51.00
2018-11-10T11:42:40.747Z,51.00
2018-11-10T11:45:10.477Z,51.10
2018-11-10T11:47:39.558Z,51.10
2018-11-10T11:50:09.804Z,51.10
2018-11-10T11:52:38.510Z,51.20
2018-11-10T11:55:07.461Z,51.20
2018-11-10T11:57:35.983Z,51.40
2018-11-10T12:00:05.060Z,51.80
2018-11-10T12:02:33.439Z,52.10
2018-11-10T12:05:02.796Z,51.90
2018-11-10T12:07:31.218Z,51.80
2018-11-10T12:09:59.783Z,51.70
2018-11-10T12:12:28.233Z,51.70
2018-11-10T12:14:57.448Z,51.60
2018-11-10T12:17:26.117Z,51.60
2018-11-10T12:19:54.786Z,51.60
2018-11-10T12:22:23.982Z,51.80
2018-11-10T12:24:53.354Z,52.10
2018-11-10T12:27:21.904Z,52.30
2018-11-10T12:29:50.627Z,52.40
2018-11-10T12:32:19.128Z,52.40
2018-11-10T12:34:47.466Z,52.40
2018-11-10T12:37:15.885Z,52.40
2018-11-10T12:39:44.239Z,52.40
2018-11-10T12:42:12.636Z,52.40
2018-11-10T12:44:40.971Z,52.40
2018-11-10T12:47:09.344Z,52.30
2018-11-10T12:49:37.685Z,52.10
2018-11-10T12:52:06.203Z,52.10
2018-11-10T12:54:34.639Z,52.10
2018-11-10T12:57:03.253Z,52.10
2018-11-10T12:59:31.756Z,52.10
2018-11-10T13:02:00.171Z,52.30
2018-11-10T13:04:28.592Z,52.40
2018-11-10T13:06:57.012Z,52.40
2018-11-10T13:09:25.597Z,52.80
2018-11-10T13:11:54.053Z,53.20
2018-11-10T13:14:22.359Z,53.10
2018-11-10T13:16:51.216Z,53.00
2018-11-10T13:19:20.214Z,53.10
2018-11-10T13:21:48.731Z,53.10
2018-11-10T13:24:17.250Z,53.20
2018-11-10T13:26:45.687Z,53.20
2018-11-10T13:29:14.172Z,53.30
2018-11-10T13:31:42.709Z,53.30
2018-11-10T13:34:12.003Z,53.40
2018-11-10T13:36:40.348Z,53.30
2018-11-10T13:39:09.632Z,53.30
2018-11-10T13:41:38.042Z,53.30
2018-11-10T13:44:06.677Z,53.30
2018-11-10T13:46:34.900Z,53.30
2018-11-10T13:49:03.266Z,53.40
2018-11-10T13:51:31.811Z,53.40
2018-11-10T13:54:00.062Z,53.40
2018-11-10T13:56:28.536Z,53.40
2018-11-10T13:58:56.912Z,53.40
2018-11-10T14:01:25.281Z,53.40
2018-11-10T14:03:54.394Z,53.40
2018-11-10T14:06:23.463Z,53.40
2018-11-10T14:08:51.881Z,53.40
2018-11-10T14:11:20.944Z,53.40
2018-11-10T14:13:49.323Z,53.50
2018-11-10T14:16:17.744Z,53.50
2018-11-10T14:18:46.082Z,53.50
2018-11-10T14:21:14.486Z,53.50
2018-11-10T14:23:42.862Z,53.50
2018-11-10T14:26:11.267Z,53.50
2018-11-10T14:28:39.602Z,53.50
2018-11-10T14:31:08.112Z,53.20
2018-11-10T14:33:36.535Z,53.10
2018-11-10T14:36:05.118Z,53.00
2018-11-10T14:38:33.479Z,53.00
2018-11-10T14:41:02.106Z,52.90
2018-11-10T14:43:30.646Z,52.90
2018-11-10T14:46:05.967Z,52.90
2018-11-10T14:48:34.515Z,52.80
2018-11-10T14:51:02.987Z,52.90
2018-11-10T14:53:31.359Z,53.10
2018-11-10T14:55:59.733Z,53.20
2018-11-10T14:58:28.756Z,53.40
2018-11-10T15:00:57.678Z,53.50
2018-11-10T15:03:26.235Z,53.50
2018-11-10T15:05:54.620Z,53.40
2018-11-10T15:08:24.035Z,53.50
2018-11-10T15:10:53.753Z,53.50
2018-11-10T15:13:22.127Z,53.50
2018-11-10T15:15:50.511Z,53.50
2018-11-10T15:18:19.019Z,53.50
2018-11-10T15:20:51.671Z,53.50
2018-11-10T15:23:20.840Z,53.50
2018-11-10T15:25:50.443Z,53.50
2018-11-10T15:28:18.961Z,53.40
2018-11-10T15:30:48.144Z,53.30
2018-11-10T15:33:16.652Z,53.20
2018-11-10T15:35:45.047Z,53.20
2018-11-10T15:38:13.465Z,53.20
2018-11-10T15:40:41.799Z,53.10
2018-11-10T15:43:10.438Z,53.10
2018-11-10T15:45:39.077Z,53.00
2018-11-10T15:48:07.812Z,53.00
2018-11-10T15:50:36.370Z,53.00
2018-11-10T15:53:05.478Z,53.10
2018-11-10T15:55:33.868Z,52.90
2018-11-10T15:58:02.812Z,52.90
2018-11-10T16:00:31.177Z,52.90
2018-11-10T16:03:00.455Z,53.50
2018-11-10T16:05:28.820Z,52.90
2018-11-10T16:07:57.206Z,53.00
2018-11-10T16:10:26.003Z,53.00
2018-11-10T16:12:54.442Z,53.00
2018-11-10T16:15:22.790Z,53.00
2018-11-10T16:17:51.274Z,53.10
2018-11-10T16:20:20.526Z,53.10
2018-11-10T16:22:50.271Z,53.60
2018-11-10T16:25:19.115Z,53.60
2018-11-10T16:27:48.369Z,53.40
2018-11-10T16:30:18.492Z,54.20
2018-11-10T16:32:47.392Z,53.70
2018-11-10T16:35:15.985Z,53.80
2018-11-10T16:37:44.339Z,53.70
2018-11-10T16:40:15.061Z,53.70
2018-11-10T16:42:44.893Z,53.70
2018-11-10T16:45:13.954Z,53.80
2018-11-10T16:47:42.342Z,53.90
2018-11-10T16:50:11.161Z,54.00
2018-11-10T16:52:40.252Z,54.00
2018-11-10T16:55:08.909Z,53.80
2018-11-10T16:57:37.803Z,53.60
2018-11-10T17:00:09.608Z,53.50
2018-11-10T17:02:38.073Z,53.50
2018-11-10T17:05:07.267Z,53.40
2018-11-10T17:07:35.635Z,53.20
2018-11-10T17:10:04.363Z,53.40
2018-11-10T17:12:32.852Z,53.40
2018-11-10T17:15:01.284Z,53.40
2018-11-10T17:17:29.662Z,53.20
2018-11-10T17:19:58.138Z,53.20
2018-11-10T17:22:26.872Z,53.20
2018-11-10T17:24:55.961Z,53.20
2018-11-10T17:27:24.460Z,52.80
2018-11-10T17:29:53.029Z,52.70
2018-11-10T17:32:28.321Z,52.80
2018-11-10T17:34:57.463Z,52.60
2018-11-10T17:37:26.872Z,52.60
2018-11-10T17:39:55.911Z,52.70
2018-11-10T17:42:24.262Z,53.10
2018-11-10T17:44:52.683Z,53.20
2018-11-10T17:47:21.039Z,53.20
2018-11-10T17:49:54.975Z,53.10
2018-11-10T17:52:23.506Z,53.00
2018-11-10T17:54:52.379Z,52.80
2018-11-10T17:57:20.801Z,52.60
2018-11-10T17:59:49.158Z,52.30
2018-11-10T18:02:18.217Z,52.00
2018-11-10T18:04:46.723Z,52.00
2018-11-10T18:07:15.098Z,52.00
2018-11-10T18:09:44.835Z,52.00
2018-11-10T18:12:13.209Z,52.60
2018-11-10T18:14:41.619Z,51.90
2018-11-10T18:17:11.437Z,51.90
2018-11-10T18:19:40.500Z,52.40
2018-11-10T18:22:09.266Z,52.80
2018-11-10T18:24:37.750Z,52.00
2018-11-10T18:27:06.576Z,52.10
2018-11-10T18:29:34.954Z,52.10
2018-11-10T18:32:03.338Z,52.10
2018-11-10T18:34:31.822Z,52.10
2018-11-10T18:37:00.348Z,52.20
2018-11-10T18:39:28.767Z,52.20
2018-11-10T18:41:57.091Z,52.30
2018-11-10T18:44:26.094Z,52.50
2018-11-10T18:46:54.560Z,52.50
2018-11-10T18:49:22.846Z,52.60
2018-11-10T18:51:51.368Z,52.70
2018-11-10T18:54:19.875Z,52.70
2018-11-10T18:56:48.353Z,52.80
2018-11-10T18:59:18.081Z,52.90
2018-11-10T19:01:46.496Z,53.00
2018-11-10T19:04:15.175Z,53.30
2018-11-10T19:06:43.547Z,53.40
2018-11-10T19:09:13.505Z,53.50
2018-11-10T19:11:41.875Z,53.50
2018-11-10T19:14:10.464Z,53.50
2018-11-10T19:16:38.828Z,53.50
2018-11-10T19:19:08.543Z,53.60
2018-11-10T19:21:36.924Z,53.60
2018-11-10T19:24:05.877Z,53.60
2018-11-10T19:26:34.265Z,53.60
2018-11-10T19:29:03.448Z,53.50
2018-11-10T19:31:32.013Z,53.50
2018-11-10T19:34:00.928Z,53.50
2018-11-10T19:36:29.496Z,53.40
2018-11-10T19:38:58.018Z,53.50
2018-11-10T19:41:27.450Z,53.40
2018-11-10T19:43:55.799Z,53.40
2018-11-10T19:46:24.661Z,53.40
2018-11-10T19:48:53.179Z,53.30
2018-11-10T19:51:21.770Z,53.20
2018-11-10T19:53:50.055Z,53.20
2018-11-10T19:56:18.439Z,53.20
2018-11-10T19:58:46.823Z,53.20
2018-11-10T20:01:15.187Z,53.30
2018-11-10T20:03:43.632Z,53.30
2018-11-10T20:06:12.076Z,53.40
2018-11-10T20:08:40.491Z,53.40
2018-11-10T20:11:09.050Z,53.50
2018-11-10T20:13:37.511Z,53.40
2018-11-10T20:16:06.136Z,53.40
2018-11-10T20:18:34.627Z,53.50
2018-11-10T20:21:03.734Z,53.40
2018-11-10T20:23:34.011Z,53.40
2018-11-10T20:26:03.113Z,53.40
2018-11-10T20:28:32.259Z,53.40
2018-11-10T20:31:01.351Z,53.30
2018-11-10T20:33:29.976Z,53.30
2018-11-10T20:35:58.528Z,53.30
2018-11-10T20:38:27.466Z,53.30
2018-11-10T20:40:55.925Z,53.20
2018-11-10T20:43:24.418Z,53.20
2018-11-10T20:45:53.924Z,53.20
2018-11-10T20:48:22.287Z,53.20
2018-11-10T20:50:51.381Z,53.80
2018-11-10T20:53:19.892Z,53.10
2018-11-10T20:55:48.296Z,53.10
2018-11-10T20:58:16.640Z,53.10
2018-11-10T21:00:45.088Z,53.80
2018-11-10T21:03:13.356Z,53.20
2018-11-10T21:05:41.806Z,53.30
2018-11-10T21:08:10.160Z,53.20
2018-11-10T21:10:38.739Z,53.10
2018-11-10T21:13:07.089Z,53.10
2018-11-10T21:15:35.460Z,53.10
2018-11-10T21:18:03.856Z,53.00
2018-11-10T21:20:32.204Z,53.00
2018-11-10T21:23:01.484Z,53.00
2018-11-10T21:25:29.828Z,53.00
2018-11-10T21:27:58.244Z,52.90
2018-11-10T21:30:26.622Z,52.90
2018-11-10T21:32:55.248Z,52.90
2018-11-10T21:35:23.929Z,53.20
2018-11-10T21:37:52.832Z,52.80
2018-11-10T21:40:21.727Z,52.70
2018-11-10T21:42:50.229Z,52.80
2018-11-10T21:45:18.920Z,52.80
2018-11-10T21:47:47.498Z,52.90
2018-11-10T21:50:17.514Z,52.90
2018-11-10T21:52:46.191Z,53.00
2018-11-10T21:55:15.900Z,53.00
2018-11-10T21:57:45.320Z,53.10
2018-11-10T22:00:15.600Z,53.00
2018-11-10T22:02:44.578Z,53.10
2018-11-10T22:05:13.118Z,53.00
2018-11-10T22:07:42.186Z,53.00
2018-11-10T22:10:12.876Z,53.10
2018-11-10T22:12:41.694Z,53.10
2018-11-10T22:15:12.661Z,53.10
2018-11-10T22:17:41.747Z,53.10
2018-11-10T22:20:12.082Z,53.10
2018-11-10T22:22:40.910Z,53.10
2018-11-10T22:25:10.558Z,53.10
2018-11-10T22:27:40.377Z,53.00
2018-11-10T22:30:10.525Z,53.00
2018-11-10T22:32:38.926Z,53.00
2018-11-10T22:35:07.881Z,53.00
2018-11-10T22:37:36.449Z,52.90
2018-11-10T22:40:06.139Z,52.90
2018-11-10T22:42:34.813Z,52.90
2018-11-10T22:45:03.516Z,52.90
2018-11-10T22:47:31.935Z,52.80
2018-11-10T22:50:00.429Z,52.80
2018-11-10T22:52:29.722Z,52.80
2018-11-10T22:54:58.201Z,52.70
2018-11-10T22:57:26.668Z,52.70
2018-11-10T22:59:55.133Z,52.70
2018-11-10T23:02:24.080Z,52.70
2018-11-10T23:04:52.501Z,53.30
2018-11-10T23:07:20.943Z,52.60
2018-11-10T23:09:49.884Z,53.00
2018-11-10T23:12:20.376Z,53.80
2018-11-10T23:14:48.749Z,54.10
2018-11-10T23:17:17.254Z,54.30
2018-11-10T23:19:45.626Z,54.20
2018-11-10T23:22:14.530Z,54.20
2018-11-10T23:24:42.947Z,54.10
2018-11-10T23:27:11.398Z,54.00
2018-11-10T23:29:39.730Z,54.00
2018-11-10T23:32:08.169Z,54.00
2018-11-10T23:34:36.546Z,53.90
2018-11-10T23:37:05.314Z,53.90
2018-11-10T23:39:33.803Z,53.80
2018-11-10T23:42:02.857Z,53.80
2018-11-10T23:44:31.344Z,53.70
2018-11-10T23:46:59.712Z,53.70
2018-11-10T23:49:28.094Z,53.60
2018-11-10T23:51:56.410Z,53.60
2018-11-10T23:54:25.324Z,53.50
2018-11-10T23:56:53.831Z,53.50
2018-11-10T23:59:22.239Z,53.50
